Nuevo Hermanos Rabal — EA4622 — position and weather

sailwx.info

Track history (hours):
 
Tides and Currents Weather Stations Pressure Air Temp Water Temp Dewpoint Dewpoint Depression Visibility Wind Speed Wind Dir Waves Ship Positions

Nuevo Hermanos Rabal

Last reported at 2018-Feb-06 23:59 UTC. Time now 2018-Feb-20 23:34 UTC.
Position N 37°57' W 000°38'.
Warning: this ship's position is 13 days out of date.

Length 22 m; draft 3 m.

Type: Fishing. MMSI: 224215230.

Date/timePositionNaut miles runAvg speedWind from/ knotsBaromVisibWave heightAir tempDewpointWater temp
2018-Feb-06 23:59N 37°57' W 000°38'3 0.2
2018-Feb-06 07:44N 37°58' W 000°41'1 3.8
2018-Feb-06 07:30N 37°58' W 000°40'2 0.4
2018-Feb-06 02:44N 37°59' W 000°37'0 0.1
2018-Feb-06 01:56N 37°59' W 000°37'4 8.3
2018-Feb-06 01:24N 37°55' W 000°39'2 2.5
2018-Feb-06 00:47N 37°54' W 000°40'1 5.2
2018-Feb-06 00:29N 37°55' W 000°39'3 5.5
2018-Feb-05 23:59N 37°54' W 000°35'510.6
2018-Feb-05 23:30N 37°49' W 000°37'2 4.2
2018-Feb-05 23:00N 37°51' W 000°38'5 9.7
2018-Feb-05 22:30N 37°55' W 000°39'1 0.7
2018-Feb-05 21:31N 37°55' W 000°39'010.7
2018-Feb-05 21:30N 37°55' W 000°39'3 6.1
2018-Feb-05 21:00N 37°58' W 000°41'  
2018-Feb-01 22:31N 37°58' W 000°41'6 5.9
2018-Feb-01 21:35N 38°02' W 000°36'6 0.5
2018-Feb-01 09:18N 37°58' W 000°41'5 0.5
2018-Jan-31 22:21N 37°53' W 000°39'  
Track history (hours):
 
Tides and Currents Weather Stations Pressure Air Temp Water Temp Dewpoint Dewpoint Depression Visibility Wind Speed Wind Dir Waves Ship Positions

Nuevo Hermanos Rabal

Last reported at 2018-Feb-06 23:59 UTC. Time now 2018-Feb-20 23:34 UTC.
Position N 37°57' W 000°38'.
Warning: this ship's position is 13 days out of date.

Length 22 m; draft 3 m.

Type: Fishing. MMSI: 224215230.

Date/timePositionNaut miles runAvg speedWind from/ knotsBaromVisibWave heightAir tempDewpointWater temp
2018-Feb-06 23:59N 37°57' W 000°38'3 0.2
2018-Feb-06 07:44N 37°58' W 000°41'1 3.8
2018-Feb-06 07:30N 37°58' W 000°40'2 0.4
2018-Feb-06 02:44N 37°59' W 000°37'0 0.1
2018-Feb-06 01:56N 37°59' W 000°37'4 8.3
2018-Feb-06 01:24N 37°55' W 000°39'2 2.5
2018-Feb-06 00:47N 37°54' W 000°40'1 5.2
2018-Feb-06 00:29N 37°55' W 000°39'3 5.5
2018-Feb-05 23:59N 37°54' W 000°35'510.6
2018-Feb-05 23:30N 37°49' W 000°37'2 4.2
2018-Feb-05 23:00N 37°51' W 000°38'5 9.7
2018-Feb-05 22:30N 37°55' W 000°39'1 0.7
2018-Feb-05 21:31N 37°55' W 000°39'010.7
2018-Feb-05 21:30N 37°55' W 000°39'3 6.1
2018-Feb-05 21:00N 37°58' W 000°41'  
2018-Feb-01 22:31N 37°58' W 000°41'6 5.9
2018-Feb-01 21:35N 38°02' W 000°36'6 0.5
2018-Feb-01 09:18N 37°58' W 000°41'5 0.5
2018-Jan-31 22:21N 37°53' W 000°39'  

Dump ship's entire track history